sensor_id;sensor_type;location;lat;lon;timestamp;pressure;altitude;pressure_sealevel;temperature;humidity
31403;BME280;18039;52.188;21.024;2023-06-26T00:00:58;75547.06;;;-141.45;80.38
31403;BME280;18039;52.188;21.024;2023-06-26T00:03:45;75555.19;;;-141.45;80.56
31403;BME280;18039;52.188;21.024;2023-06-26T00:06:13;75563.28;;;-141.45;80.89
31403;BME280;18039;52.188;21.024;2023-06-26T00:08:40;75571.38;;;-141.45;81.14
31403;BME280;18039;52.188;21.024;2023-06-26T00:11:08;75571.38;;;-141.45;81.54
31403;BME280;18039;52.188;21.024;2023-06-26T00:13:35;75579.50;;;-141.45;81.78
31403;BME280;18039;52.188;21.024;2023-06-26T00:16:03;75579.50;;;-141.45;82.48
31403;BME280;18039;52.188;21.024;2023-06-26T00:18:31;75587.59;;;-141.45;82.89
31403;BME280;18039;52.188;21.024;2023-06-26T00:20:59;75595.69;;;-141.45;83.27
31403;BME280;18039;52.188;21.024;2023-06-26T00:23:26;75595.69;;;-141.45;83.58
31403;BME280;18039;52.188;21.024;2023-06-26T00:25:54;75601.78;;;-141.45;83.82
31403;BME280;18039;52.188;21.024;2023-06-26T00:28:21;75607.88;;;-141.45;84.06
31403;BME280;18039;52.188;21.024;2023-06-26T00:30:49;75609.88;;;-141.45;84.39
31403;BME280;18039;52.188;21.024;2023-06-26T00:33:16;75611.91;;;-141.45;84.74
31403;BME280;18039;52.188;21.024;2023-06-26T00:35:43;75615.97;;;-141.45;85.27
31403;BME280;18039;52.188;21.024;2023-06-26T00:38:10;75624.06;;;-141.45;85.41
31403;BME280;18039;52.188;21.024;2023-06-26T00:40:38;75624.06;;;-141.45;85.67
31403;BME280;18039;52.188;21.024;2023-06-26T00:43:06;75628.13;;;-141.45;85.54
31403;BME280;18039;52.188;21.024;2023-06-26T00:45:33;75628.13;;;-141.45;85.74
31403;BME280;18039;52.188;21.024;2023-06-26T00:48:10;75624.06;;;-141.45;85.51
31403;BME280;18039;52.188;21.024;2023-06-26T00:50:41;75615.97;;;-141.45;85.13
31403;BME280;18039;52.188;21.024;2023-06-26T00:53:10;75603.81;;;-141.45;84.88
31403;BME280;18039;52.188;21.024;2023-06-26T00:55:39;75599.75;;;-141.45;84.72
31403;BME280;18039;52.188;21.024;2023-06-26T00:58:08;75607.88;;;-141.45;84.48
31403;BME280;18039;52.188;21.024;2023-06-26T01:00:36;75607.88;;;-141.45;84.40
31403;BME280;18039;52.188;21.024;2023-06-26T01:03:03;75607.88;;;-141.45;84.64
31403;BME280;18039;52.188;21.024;2023-06-26T01:05:32;75620.03;;;-141.45;84.71
31403;BME280;18039;52.188;21.024;2023-06-26T01:07:59;75624.06;;;-141.45;85.01
31403;BME280;18039;52.188;21.024;2023-06-26T01:10:27;75626.09;;;-141.45;84.98
31403;BME280;18039;52.188;21.024;2023-06-26T01:12:59;75628.13;;;-141.45;85.31
31403;BME280;18039;52.188;21.024;2023-06-26T01:15:28;75624.06;;;-141.45;85.31
31403;BME280;18039;52.188;21.024;2023-06-26T01:17:57;75618.00;;;-141.45;85.21
31403;BME280;18039;52.188;21.024;2023-06-26T01:20:27;75611.91;;;-141.45;85.25
31403;BME280;18039;52.188;21.024;2023-06-26T01:23:05;75611.91;;;-141.45;85.46
31403;BME280;18039;52.188;21.024;2023-06-26T01:28:11;75628.13;;;-141.45;85.97
31403;BME280;18039;52.188;21.024;2023-06-26T01:30:42;75636.22;;;-141.45;85.97
31403;BME280;18039;52.188;21.024;2023-06-26T01:33:11;75636.22;;;-141.45;86.19
31403;BME280;18039;52.188;21.024;2023-06-26T01:35:40;75644.34;;;-141.45;86.69
31403;BME280;18039;52.188;21.024;2023-06-26T01:38:15;75648.41;;;-141.45;87.01
31403;BME280;18039;52.188;21.024;2023-06-26T01:40:43;75654.47;;;-141.45;87.27
31403;BME280;18039;52.188;21.024;2023-06-26T01:49:31;75664.59;;;-141.45;88.04
31403;BME280;18039;52.188;21.024;2023-06-26T01:55:21;75670.69;;;-141.45;88.33
31403;BME280;18039;52.188;21.024;2023-06-26T01:57:54;75680.81;;;-141.45;88.70
31403;BME280;18039;52.188;21.024;2023-06-26T02:00:23;75684.88;;;-141.45;88.93
31403;BME280;18039;52.188;21.024;2023-06-26T02:02:52;75680.81;;;-141.45;89.13
31403;BME280;18039;52.188;21.024;2023-06-26T02:05:19;75680.81;;;-141.45;89.38
31403;BME280;18039;52.188;21.024;2023-06-26T02:07:47;75688.94;;;-141.45;89.57
31403;BME280;18039;52.188;21.024;2023-06-26T02:10:14;75692.97;;;-141.45;90.01
31403;BME280;18039;52.188;21.024;2023-06-26T02:12:42;75701.09;;;-141.45;90.21
31403;BME280;18039;52.188;21.024;2023-06-26T02:15:12;75705.13;;;-141.45;90.50
31403;BME280;18039;52.188;21.024;2023-06-26T02:17:39;75705.13;;;-141.45;90.53
31403;BME280;18039;52.188;21.024;2023-06-26T02:20:07;75701.09;;;-141.45;90.45
31403;BME280;18039;52.188;21.024;2023-06-26T02:22:37;75692.97;;;-141.45;90.31
31403;BME280;18039;52.188;21.024;2023-06-26T02:25:05;75695.00;;;-141.45;90.23
31403;BME280;18039;52.188;21.024;2023-06-26T02:27:33;75701.09;;;-141.45;90.60
31403;BME280;18039;52.188;21.024;2023-06-26T02:30:00;75705.13;;;-141.45;90.55
31403;BME280;18039;52.188;21.024;2023-06-26T02:32:28;75705.13;;;-141.45;90.67
31403;BME280;18039;52.188;21.024;2023-06-26T02:34:56;75705.13;;;-141.45;90.88
31403;BME280;18039;52.188;21.024;2023-06-26T02:37:24;75709.19;;;-141.45;90.66
31403;BME280;18039;52.188;21.024;2023-06-26T02:39:51;75709.19;;;-141.45;90.31
31403;BME280;18039;52.188;21.024;2023-06-26T02:42:18;75709.19;;;-141.45;90.24
31403;BME280;18039;52.188;21.024;2023-06-26T02:44:45;75713.25;;;-141.45;90.07
31403;BME280;18039;52.188;21.024;2023-06-26T02:47:13;75709.19;;;-141.45;89.50
31403;BME280;18039;52.188;21.024;2023-06-26T02:49:43;75705.13;;;-141.45;89.14
31403;BME280;18039;52.188;21.024;2023-06-26T02:52:11;75701.09;;;-141.45;88.75
31403;BME280;18039;52.188;21.024;2023-06-26T02:54:38;75701.09;;;-141.45;88.35
31403;BME280;18039;52.188;21.024;2023-06-26T02:57:06;75701.09;;;-141.45;88.45
31403;BME280;18039;52.188;21.024;2023-06-26T02:59:34;75697.03;;;-141.45;88.62
31403;BME280;18039;52.188;21.024;2023-06-26T03:02:02;75690.94;;;-141.45;88.39
31403;BME280;18039;52.188;21.024;2023-06-26T03:04:37;75701.09;;;-141.45;88.11
31403;BME280;18039;52.188;21.024;2023-06-26T03:07:08;75705.13;;;-141.45;88.01
31403;BME280;18039;52.188;21.024;2023-06-26T03:09:38;75688.94;;;-141.45;88.04
31403;BME280;18039;52.188;21.024;2023-06-26T03:12:05;75676.75;;;-141.45;87.96
31403;BME280;18039;52.188;21.024;2023-06-26T03:14:34;75660.56;;;-141.45;87.60
31403;BME280;18039;52.188;21.024;2023-06-26T03:17:01;75656.50;;;-141.45;87.49
31403;BME280;18039;52.188;21.024;2023-06-26T03:19:32;75644.34;;;-141.45;86.91
31403;BME280;18039;52.188;21.024;2023-06-26T03:22:35;75648.41;;;-141.45;86.53
31403;BME280;18039;52.188;21.024;2023-06-26T03:25:03;75644.34;;;-141.45;86.79
31403;BME280;18039;52.188;21.024;2023-06-26T03:27:32;75620.03;;;-141.45;86.60
31403;BME280;18039;52.188;21.024;2023-06-26T03:29:59;75611.91;;;-141.45;86.72
31403;BME280;18039;52.188;21.024;2023-06-26T03:32:27;75609.88;;;-141.45;86.84
31403;BME280;18039;52.188;21.024;2023-06-26T03:34:55;75603.81;;;-141.45;86.45
31403;BME280;18039;52.188;21.024;2023-06-26T03:37:22;75597.72;;;-141.45;86.06
31403;BME280;18039;52.188;21.024;2023-06-26T03:39:50;75583.53;;;-141.45;85.59
31403;BME280;18039;52.188;21.024;2023-06-26T03:42:18;75583.53;;;-141.45;85.81
31403;BME280;18039;52.188;21.024;2023-06-26T03:44:45;75583.53;;;-141.45;86.07
31403;BME280;18039;52.188;21.024;2023-06-26T03:47:12;75579.50;;;-141.45;85.78
31403;BME280;18039;52.188;21.024;2023-06-26T03:49:39;75571.38;;;-141.45;85.13
31403;BME280;18039;52.188;21.024;2023-06-26T03:52:07;75559.22;;;-141.45;84.36
31403;BME280;18039;52.188;21.024;2023-06-26T03:54:34;75543.00;;;-141.45;84.10
31403;BME280;18039;52.188;21.024;2023-06-26T03:57:02;75534.91;;;-141.45;83.82
31403;BME280;18039;52.188;21.024;2023-06-26T03:59:29;75518.69;;;-141.45;83.69
31403;BME280;18039;52.188;21.024;2023-06-26T04:01:57;75510.59;;;-141.45;83.35
31403;BME280;18039;52.188;21.024;2023-06-26T04:04:24;75498.44;;;-141.45;82.61
31403;BME280;18039;52.188;21.024;2023-06-26T04:06:51;75490.31;;;-141.45;82.01
31403;BME280;18039;52.188;21.024;2023-06-26T04:09:20;75472.09;;;-141.45;81.10
31403;BME280;18039;52.188;21.024;2023-06-26T04:11:47;75466.00;;;-141.45;80.41
31403;BME280;18039;52.188;21.024;2023-06-26T04:14:16;75461.97;;;-141.45;79.48
31403;BME280;18039;52.188;21.024;2023-06-26T04:16:44;75449.81;;;-141.45;78.66
31403;BME280;18039;52.188;21.024;2023-06-26T04:19:14;75437.63;;;-141.45;78.23
31403;BME280;18039;52.188;21.024;2023-06-26T04:21:42;75429.53;;;-141.45;78.23
31403;BME280;18039;52.188;21.024;2023-06-26T04:24:13;75417.38;;;-141.45;77.32
31403;BME280;18039;52.188;21.024;2023-06-26T04:26:42;75411.28;;;-141.45;76.37
31403;BME280;18039;52.188;21.024;2023-06-26T04:29:09;75397.13;;;-141.45;75.45
31403;BME280;18039;52.188;21.024;2023-06-26T04:31:36;75384.97;;;-141.45;75.25
31403;BME280;18039;52.188;21.024;2023-06-26T04:34:05;75370.78;;;-141.45;75.08
31403;BME280;18039;52.188;21.024;2023-06-26T04:36:33;75352.53;;;-141.45;74.56
31403;BME280;18039;52.188;21.024;2023-06-26T04:39:05;75344.44;;;-141.45;73.55
31403;BME280;18039;52.188;21.024;2023-06-26T04:41:33;75332.28;;;-141.45;72.97
31403;BME280;18039;52.188;21.024;2023-06-26T04:44:01;75328.22;;;-141.45;72.78
31403;BME280;18039;52.188;21.024;2023-06-26T04:46:28;75316.06;;;-141.45;72.46
31403;BME280;18039;52.188;21.024;2023-06-26T04:48:55;75301.88;;;-141.45;72.05
31403;BME280;18039;52.188;21.024;2023-06-26T04:51:25;75287.69;;;-141.45;71.45
31403;BME280;18039;52.188;21.024;2023-06-26T04:53:54;75275.53;;;-141.45;71.25
31403;BME280;18039;52.188;21.024;2023-06-26T04:56:22;75255.25;;;-141.45;70.47
31403;BME280;18039;52.188;21.024;2023-06-26T04:58:49;75239.06;;;-141.45;70.00
31403;BME280;18039;52.188;21.024;2023-06-26T05:01:17;75218.78;;;-141.45;70.05
31403;BME280;18039;52.188;21.024;2023-06-26T05:03:44;75206.63;;;-141.45;69.83
31403;BME280;18039;52.188;21.024;2023-06-26T05:06:13;75202.59;;;-141.45;69.30
31403;BME280;18039;52.188;21.024;2023-06-26T05:08:40;75190.44;;;-141.45;68.82
31403;BME280;18039;52.188;21.024;2023-06-26T05:11:08;75178.28;;;-141.45;68.63
31403;BME280;18039;52.188;21.024;2023-06-26T05:13:35;75170.16;;;-141.45;68.80
31403;BME280;18039;52.188;21.024;2023-06-26T05:16:03;75158.00;;;-141.45;68.18
31403;BME280;18039;52.188;21.024;2023-06-26T05:18:31;75143.81;;;-141.45;66.56
31403;BME280;18039;52.188;21.024;2023-06-26T05:20:58;75143.81;;;-141.45;66.84
31403;BME280;18039;52.188;21.024;2023-06-26T05:23:26;75127.63;;;-141.45;66.27
31403;BME280;18039;52.188;21.024;2023-06-26T05:25:54;75117.47;;;-141.45;66.75
31403;BME280;18039;52.188;21.024;2023-06-26T05:28:22;75097.22;;;-141.45;66.49
31403;BME280;18039;52.188;21.024;2023-06-26T05:30:51;75076.97;;;-141.45;65.67
31403;BME280;18039;52.188;21.024;2023-06-26T05:33:21;75064.81;;;-141.45;64.62
31403;BME280;18039;52.188;21.024;2023-06-26T05:35:53;75068.84;;;-141.45;63.62
31403;BME280;18039;52.188;21.024;2023-06-26T05:38:22;75064.81;;;-141.45;63.77
31403;BME280;18039;52.188;21.024;2023-06-26T05:40:50;75068.84;;;-141.45;64.24
31403;BME280;18039;52.188;21.024;2023-06-26T05:43:18;75052.66;;;-141.45;64.34
31403;BME280;18039;52.188;21.024;2023-06-26T05:45:54;75048.59;;;-141.45;64.11
31403;BME280;18039;52.188;21.024;2023-06-26T05:48:20;75036.44;;;-141.45;64.14
31403;BME280;18039;52.188;21.024;2023-06-26T05:50:49;75028.31;;;-141.45;63.88
31403;BME280;18039;52.188;21.024;2023-06-26T05:53:16;75032.38;;;-141.45;64.15
31403;BME280;18039;52.188;21.024;2023-06-26T05:55:44;75020.22;;;-141.45;64.09
31403;BME280;18039;52.188;21.024;2023-06-26T05:58:11;75018.19;;;-141.45;63.54
31403;BME280;18039;52.188;21.024;2023-06-26T06:00:39;75012.13;;;-141.45;63.98
31403;BME280;18039;52.188;21.024;2023-06-26T06:03:09;74999.97;;;-141.45;63.10
31403;BME280;18039;52.188;21.024;2023-06-26T06:05:38;74991.84;;;-141.45;63.13
31403;BME280;18039;52.188;21.024;2023-06-26T06:08:05;74983.75;;;-141.45;63.82
31403;BME280;18039;52.188;21.024;2023-06-26T06:10:34;74971.59;;;-141.45;62.85
31403;BME280;18039;52.188;21.024;2023-06-26T06:13:01;74963.50;;;-141.45;62.46
31403;BME280;18039;52.188;21.024;2023-06-26T06:15:29;74951.34;;;-141.45;62.39
31403;BME280;18039;52.188;21.024;2023-06-26T06:17:57;74943.22;;;-141.45;62.06
31403;BME280;18039;52.188;21.024;2023-06-26T06:20:25;74931.06;;;-141.45;61.87
31403;BME280;18039;52.188;21.024;2023-06-26T06:22:52;74922.97;;;-141.45;61.89
31403;BME280;18039;52.188;21.024;2023-06-26T06:25:20;74912.84;;;-141.45;61.41
31403;BME280;18039;52.188;21.024;2023-06-26T06:27:47;74910.81;;;-141.45;60.85
31403;BME280;18039;52.188;21.024;2023-06-26T06:30:14;74906.75;;;-141.45;60.62
31403;BME280;18039;52.188;21.024;2023-06-26T06:32:42;74886.50;;;-141.45;60.47
31403;BME280;18039;52.188;21.024;2023-06-26T06:35:12;74886.50;;;-141.45;60.10
31403;BME280;18039;52.188;21.024;2023-06-26T06:37:41;74874.34;;;-141.45;58.18
31403;BME280;18039;52.188;21.024;2023-06-26T06:40:10;74870.28;;;-141.45;58.15
31403;BME280;18039;52.188;21.024;2023-06-26T06:42:37;74874.34;;;-141.45;57.04
31403;BME280;18039;52.188;21.024;2023-06-26T06:45:05;74870.28;;;-141.45;57.68
31403;BME280;18039;52.188;21.024;2023-06-26T06:47:34;74858.13;;;-141.45;56.93
31403;BME280;18039;52.188;21.024;2023-06-26T06:50:02;74845.97;;;-141.45;57.28
31403;BME280;18039;52.188;21.024;2023-06-26T06:52:39;74837.88;;;-141.45;55.28
31403;BME280;18039;52.188;21.024;2023-06-26T06:55:08;74837.88;;;-141.45;55.45
31403;BME280;18039;52.188;21.024;2023-06-26T06:57:37;74829.78;;;-141.45;55.35
31403;BME280;18039;52.188;21.024;2023-06-26T07:00:10;74825.72;;;-141.45;53.29
31403;BME280;18039;52.188;21.024;2023-06-26T07:02:42;74821.66;;;-141.45;54.03
31403;BME280;18039;52.188;21.024;2023-06-26T07:05:10;74821.66;;;-141.45;54.23
31403;BME280;18039;52.188;21.024;2023-06-26T07:07:38;74817.63;;;-141.45;54.67
31403;BME280;18039;52.188;21.024;2023-06-26T07:10:09;74813.56;;;-141.45;54.88
31403;BME280;18039;52.188;21.024;2023-06-26T07:12:37;74799.38;;;-141.45;52.86
31403;BME280;18039;52.188;21.024;2023-06-26T07:15:05;74793.31;;;-141.45;52.43
31403;BME280;18039;52.188;21.024;2023-06-26T07:17:34;74795.31;;;-141.45;52.75
31403;BME280;18039;52.188;21.024;2023-06-26T07:20:02;74783.16;;;-141.45;52.86
31403;BME280;18039;52.188;21.024;2023-06-26T07:22:35;74773.03;;;-141.45;51.65
31403;BME280;18039;52.188;21.024;2023-06-26T07:25:02;74769.00;;;-141.45;51.50
31403;BME280;18039;52.188;21.024;2023-06-26T07:27:31;74760.88;;;-141.45;51.82
31403;BME280;18039;52.188;21.024;2023-06-26T07:30:01;74750.75;;;-141.45;51.59
31403;BME280;18039;52.188;21.024;2023-06-26T07:32:28;74756.84;;;-141.45;51.62
31403;BME280;18039;52.188;21.024;2023-06-26T07:34:56;74748.72;;;-141.45;52.02
31403;BME280;18039;52.188;21.024;2023-06-26T07:37:23;74754.81;;;-141.45;51.85
31403;BME280;18039;52.188;21.024;2023-06-26T07:39:51;74738.59;;;-141.45;51.34
31403;BME280;18039;52.188;21.024;2023-06-26T07:42:18;74740.63;;;-141.45;51.84
31403;BME280;18039;52.188;21.024;2023-06-26T07:44:45;74732.53;;;-141.45;52.39
31403;BME280;18039;52.188;21.024;2023-06-26T07:47:13;74736.56;;;-141.45;52.11
31403;BME280;18039;52.188;21.024;2023-06-26T07:49:41;74734.53;;;-141.45;52.00
31403;BME280;18039;52.188;21.024;2023-06-26T07:52:11;74726.44;;;-141.45;50.99
31403;BME280;18039;52.188;21.024;2023-06-26T07:54:39;74698.06;;;-141.45;50.49
31403;BME280;18039;52.188;21.024;2023-06-26T07:57:06;74692.00;;;-141.45;50.19
31403;BME280;18039;52.188;21.024;2023-06-26T07:59:35;74683.91;;;-141.45;50.13
31403;BME280;18039;52.188;21.024;2023-06-26T08:02:02;74675.78;;;-141.45;49.34
31403;BME280;18039;52.188;21.024;2023-06-26T08:04:30;74663.63;;;-141.45;49.70
31403;BME280;18039;52.188;21.024;2023-06-26T08:07:00;74655.53;;;-141.45;49.28
31403;BME280;18039;52.188;21.024;2023-06-26T08:09:29;74647.44;;;-141.45;49.39
31403;BME280;18039;52.188;21.024;2023-06-26T08:11:57;74631.22;;;-141.45;49.30
31403;BME280;18039;52.188;21.024;2023-06-26T08:14:28;74623.13;;;-141.45;47.26
31403;BME280;18039;52.188;21.024;2023-06-26T08:16:55;74619.06;;;-141.45;47.55
31403;BME280;18039;52.188;21.024;2023-06-26T08:19:23;74641.34;;;-141.45;48.26
31403;BME280;18039;52.188;21.024;2023-06-26T08:21:54;74651.47;;;-141.45;49.04
31403;BME280;18039;52.188;21.024;2023-06-26T08:24:22;74667.69;;;-141.45;49.27
31403;BME280;18039;52.188;21.024;2023-06-26T08:26:50;74665.66;;;-141.45;48.32
31403;BME280;18039;52.188;21.024;2023-06-26T08:29:18;74671.75;;;-141.45;47.98
31403;BME280;18039;52.188;21.024;2023-06-26T08:31:45;74655.53;;;-141.45;48.81
31403;BME280;18039;52.188;21.024;2023-06-26T08:34:17;74647.44;;;-141.45;46.64
31403;BME280;18039;52.188;21.024;2023-06-26T08:36:45;74631.22;;;-141.45;46.51
31403;BME280;18039;52.188;21.024;2023-06-26T08:39:13;74608.94;;;-141.45;45.22
31403;BME280;18039;52.188;21.024;2023-06-26T08:41:40;74594.75;;;-141.45;45.54
31403;BME280;18039;52.188;21.024;2023-06-26T08:44:09;74594.75;;;-141.45;44.61
31403;BME280;18039;52.188;21.024;2023-06-26T08:46:37;74586.66;;;-141.45;43.95
31403;BME280;18039;52.188;21.024;2023-06-26T08:49:14;74560.31;;;-141.45;42.18
31403;BME280;18039;52.188;21.024;2023-06-26T08:51:56;74550.19;;;-141.45;42.28
31403;BME280;18039;52.188;21.024;2023-06-26T08:54:36;74540.06;;;-141.45;40.62
31403;BME280;18039;52.188;21.024;2023-06-26T08:57:07;74529.94;;;-141.45;39.89
31403;BME280;18039;52.188;21.024;2023-06-26T08:59:36;74501.56;;;-141.45;40.86
31403;BME280;18039;52.188;21.024;2023-06-26T09:02:03;74465.09;;;-141.45;41.12
31403;BME280;18039;52.188;21.024;2023-06-26T09:04:31;74452.94;;;-141.45;41.20
31403;BME280;18039;52.188;21.024;2023-06-26T09:06:59;74457.00;;;-141.45;40.86
31403;BME280;18039;52.188;21.024;2023-06-26T09:09:28;74454.97;;;-141.45;40.92
31403;BME280;18039;52.188;21.024;2023-06-26T09:11:57;74452.94;;;-141.45;41.05
31403;BME280;18039;52.188;21.024;2023-06-26T09:14:24;74461.03;;;-141.45;41.67
31403;BME280;18039;52.188;21.024;2023-06-26T09:16:52;74457.00;;;-141.45;42.39
31403;BME280;18039;52.188;21.024;2023-06-26T09:19:20;74465.09;;;-141.45;42.38
31403;BME280;18039;52.188;21.024;2023-06-26T09:21:50;74457.00;;;-141.45;42.55
31403;BME280;18039;52.188;21.024;2023-06-26T09:24:18;74469.16;;;-141.45;42.21
31403;BME280;18039;52.188;21.024;2023-06-26T09:26:50;74473.19;;;-141.45;42.18
31403;BME280;18039;52.188;21.024;2023-06-26T09:29:19;74475.22;;;-141.45;42.91
31403;BME280;18039;52.188;21.024;2023-06-26T09:31:51;74479.28;;;-141.45;43.44
31403;BME280;18039;52.188;21.024;2023-06-26T09:34:18;74501.56;;;-141.45;43.63
31403;BME280;18039;52.188;21.024;2023-06-26T09:36:53;74497.50;;;-141.45;43.49
31403;BME280;18039;52.188;21.024;2023-06-26T09:39:20;74477.25;;;-141.45;43.54
31403;BME280;18039;52.188;21.024;2023-06-26T09:41:51;74469.16;;;-141.45;41.91
31403;BME280;18039;52.188;21.024;2023-06-26T09:44:25;74483.31;;;-141.45;42.71
31403;BME280;18039;52.188;21.024;2023-06-26T09:46:54;74473.19;;;-141.45;43.09
31403;BME280;18039;52.188;21.024;2023-06-26T09:49:23;74465.09;;;-141.45;43.18
31403;BME280;18039;52.188;21.024;2023-06-26T09:51:51;74444.84;;;-141.45;43.46
31403;BME280;18039;52.188;21.024;2023-06-26T09:54:21;74428.63;;;-141.45;42.70
31403;BME280;18039;52.188;21.024;2023-06-26T09:56:49;74424.59;;;-141.45;42.40
31403;BME280;18039;52.188;21.024;2023-06-26T09:59:17;74412.44;;;-141.45;42.27
31403;BME280;18039;52.188;21.024;2023-06-26T10:01:45;74398.25;;;-141.45;40.72
31403;BME280;18039;52.188;21.024;2023-06-26T10:04:14;74400.28;;;-141.45;41.13
31403;BME280;18039;52.188;21.024;2023-06-26T10:06:46;74396.22;;;-141.45;39.60
31403;BME280;18039;52.188;21.024;2023-06-26T10:09:17;74388.13;;;-141.45;40.21
31403;BME280;18039;52.188;21.024;2023-06-26T10:11:51;74392.16;;;-141.45;40.11
31403;BME280;18039;52.188;21.024;2023-06-26T10:14:38;74392.16;;;-141.45;40.18
31403;BME280;18039;52.188;21.024;2023-06-26T10:17:10;74388.13;;;-141.45;40.74
31403;BME280;18039;52.188;21.024;2023-06-26T10:19:39;74371.91;;;-141.45;41.57
31403;BME280;18039;52.188;21.024;2023-06-26T10:22:12;74343.56;;;-141.45;41.11
31403;BME280;18039;52.188;21.024;2023-06-26T10:24:43;74339.50;;;-141.45;41.97
31403;BME280;18039;52.188;21.024;2023-06-26T10:27:17;74347.59;;;-141.45;41.62
31403;BME280;18039;52.188;21.024;2023-06-26T10:29:51;74347.59;;;-141.45;41.43
31403;BME280;18039;52.188;21.024;2023-06-26T10:32:21;74341.53;;;-141.45;42.06
31403;BME280;18039;52.188;21.024;2023-06-26T10:34:50;74339.50;;;-141.45;42.20
31403;BME280;18039;52.188;21.024;2023-06-26T10:37:17;74339.50;;;-141.45;42.25
31403;BME280;18039;52.188;21.024;2023-06-26T10:39:52;74341.53;;;-141.45;41.31
31403;BME280;18039;52.188;21.024;2023-06-26T10:42:35;74333.41;;;-141.45;41.57
31403;BME280;18039;52.188;21.024;2023-06-26T10:45:29;74331.41;;;-141.45;40.88
31403;BME280;18039;52.188;21.024;2023-06-26T10:47:57;74331.41;;;-141.45;38.67
31403;BME280;18039;52.188;21.024;2023-06-26T10:50:27;74315.19;;;-141.45;38.68
31403;BME280;18039;52.188;21.024;2023-06-26T10:56:04;74294.94;;;-141.45;40.65
31403;BME280;18039;52.188;21.024;2023-06-26T11:03:40;74290.88;;;-141.45;40.45
31403;BME280;18039;52.188;21.024;2023-06-26T11:06:09;74290.88;;;-141.45;41.02
